Cary, NC (27511)

8:40 PM EDT on July 28, 2015 (GMT -0400)
Ridgepath | | Change Station
CLOSE
Current Station
Personal Weather Station
Location: Cary, NC
Elevation: 436 ft
Nearby Weather Stations

Elev 436 ft 35.75 °N, 78.78 °W | Updated 8 minutes ago

Overcast
Overcast
81.1 °F
Feels Like 85 °F
N
0.0
Wind Variable Wind from SSW

Today
High -- | Low -- °F
--% Chance of Precip.
Yesterday
High -- | Low -- °F
Precip. -- in
6:19 AM 8:23 PM
Waxing Gibbous, 92% visible
Pressure 29.98 in
Visibility 10.0 miles
Clouds Few 3500 ft
Scattered Clouds 5500 ft
Mostly Cloudy 10000 ft
Mostly Cloudy 25000 ft
Heat Index 85 °F
Dew Point 71 °F
Humidity 72%
Rainfall 0.00 in
Snow Depth Not available.
UV 0 out of 12
Pollen 2.50 out of 12
Air Quality Not available.
Flu Activity Not available.
METAR KRDU 282351Z 00000KT 10SM -RA FEW035 SCT055 BKN100 BKN250 29/22 A2999 RMK AO2 SLP150 P0000 60000 T02890217 10322 20289 53004 $

More Conditions Fewer Conditions

Pressure 29.98 in
Visibility 10.0 miles
Clouds Few 3500 ft
Scattered Clouds 5500 ft
Mostly Cloudy 10000 ft
Mostly Cloudy 25000 ft
Heat Index 85 °F
Dew Point 71 °F
Humidity 72%
Rainfall 0.00 in
Snow Depth Not available.
UV 0 out of 12
Pollen 2.50 out of 12
Air Quality Not available.
Flu Activity Not available.
METAR KRDU 282351Z 00000KT 10SM -RA FEW035 SCT055 BKN100 BKN250 29/22 A2999 RMK AO2 SLP150 P0000 60000 T02890217 10322 20289 53004 $

More Conditions Fewer Conditions

10-Day Weather Forecast

×

Almanac

Astronomy

Jul. 28, 2015 Rise Set
Actual Time
Civil Twilight
Nautical Twilight
Astronomical Twilight
Moon
Length of Visible Light
Length of Day
Tomorrow will be .
, % of the Moon is Illuminated

Today's Extremes

State Highs State Lows

Community

WunderPhotos

Upload Photos

1,841,987 photos uploaded!

WunderBlogs® & News

Nearby

Air Quality

  Air Quality AQ Index Pollutant
Not available.

Snow Depth

Station Depth Elevation

Earthquake Activity

City Distance Mag. Time & Date
Minimum magnitude displayed is 2.5.

Coastal Water Temperatures

Place Temperature

Stations

Nearby Weather Stations

Station Location Temp. Windchill Dew Point Humidity Wind Precip. Elev Updated Type